createdAt,value
2019-04-27T00:00:55.323Z,1.70
2019-04-27T00:03:29.118Z,1.50
2019-04-27T00:06:00.098Z,1.27
2019-04-27T00:08:35.652Z,1.62
2019-04-27T00:11:08.729Z,1.40
2019-04-27T00:13:40.709Z,1.70
2019-04-27T00:16:11.162Z,1.42
2019-04-27T00:18:58.792Z,1.60
2019-04-27T00:21:32.917Z,1.57
2019-04-27T00:24:03.444Z,1.50
2019-04-27T00:26:33.419Z,1.50
2019-04-27T00:29:03.812Z,1.37
2019-04-27T00:31:33.739Z,1.57
2019-04-27T00:34:03.705Z,1.30
2019-04-27T00:36:51.037Z,1.47
2019-04-27T00:39:24.773Z,1.25
2019-04-27T00:41:54.141Z,1.47
2019-04-27T00:44:23.752Z,1.40
2019-04-27T00:46:53.508Z,1.25
2019-04-27T00:49:23.871Z,1.10
2019-04-27T00:51:53.681Z,1.17
2019-04-27T00:54:24.186Z,1.27
2019-04-27T00:57:10.513Z,1.27
2019-04-27T00:59:44.462Z,1.10
2019-04-27T01:02:18.642Z,1.05
2019-04-27T01:04:48.034Z,1.00
2019-04-27T01:07:17.376Z,1.25
2019-04-27T01:09:46.710Z,1.30
2019-04-27T01:12:16.574Z,0.98
2019-04-27T01:14:45.908Z,1.20
2019-04-27T01:17:15.373Z,1.00
2019-04-27T01:19:44.769Z,1.05
2019-04-27T01:22:15.065Z,1.07
2019-04-27T01:24:44.384Z,1.42
2019-04-27T01:27:31.486Z,1.12
2019-04-27T01:30:00.878Z,1.00
2019-04-27T01:32:30.387Z,1.20
2019-04-27T01:34:59.705Z,1.15
2019-04-27T01:37:29.041Z,1.30
2019-04-27T01:39:59.033Z,1.30
2019-04-27T01:42:29.462Z,1.30
2019-04-27T01:44:59.516Z,1.52
2019-04-27T01:47:29.052Z,1.15
2019-04-27T01:49:59.445Z,1.20
2019-04-27T01:52:29.200Z,1.47
2019-04-27T01:54:59.802Z,1.12
2019-04-27T01:57:29.550Z,1.30
2019-04-27T01:59:59.123Z,1.40
2019-04-27T02:02:39.962Z,1.27
2019-04-27T02:05:11.466Z,1.47
2019-04-27T02:07:41.866Z,1.17
2019-04-27T02:10:13.202Z,1.20
2019-04-27T02:12:44.035Z,1.30
2019-04-27T02:15:13.910Z,1.30
2019-04-27T02:17:43.250Z,1.17
2019-04-27T02:20:12.901Z,1.17
2019-04-27T02:22:42.237Z,1.10
2019-04-27T02:25:11.621Z,1.15
2019-04-27T02:27:42.608Z,1.05
2019-04-27T02:30:17.426Z,1.00
2019-04-27T02:33:04.667Z,1.10
2019-04-27T02:35:33.993Z,1.47
2019-04-27T02:38:03.376Z,1.00
2019-04-27T02:40:51.269Z,1.20
2019-04-27T02:43:22.517Z,1.30
2019-04-27T02:45:51.974Z,1.40
2019-04-27T02:48:21.311Z,1.90
2019-04-27T02:50:52.333Z,1.57
2019-04-27T02:56:14.260Z,2.35
2019-04-27T02:58:43.597Z,2.60
2019-04-27T03:01:12.914Z,3.10
2019-04-27T03:03:42.234Z,3.08
2019-04-27T03:06:11.626Z,3.10
2019-04-27T03:08:42.672Z,2.75
2019-04-27T03:11:12.046Z,2.72
2019-04-27T03:13:45.722Z,3.42
2019-04-27T03:16:16.692Z,3.63
2019-04-27T03:18:50.596Z,3.55
2019-04-27T03:21:23.400Z,4.00
2019-04-27T03:23:52.806Z,3.67
2019-04-27T03:26:23.840Z,4.47
2019-04-27T03:28:54.009Z,4.55
2019-04-27T03:31:23.391Z,4.53
2019-04-27T03:33:59.144Z,4.25
2019-04-27T03:36:24.002Z,4.08
2019-04-27T03:38:53.421Z,4.28
2019-04-27T03:41:22.875Z,3.98
2019-04-27T03:43:52.217Z,4.35
2019-04-27T03:46:21.529Z,3.60
2019-04-27T03:48:50.863Z,3.80
2019-04-27T03:51:21.898Z,4.55
2019-04-27T03:53:52.925Z,3.80
2019-04-27T03:56:23.974Z,4.05
2019-04-27T03:59:10.447Z,3.62
2019-04-27T04:01:39.910Z,4.00
2019-04-27T04:04:10.683Z,4.75
2019-04-27T04:06:41.151Z,4.72
2019-04-27T04:09:11.765Z,4.37
2019-04-27T04:11:42.790Z,4.65
2019-04-27T04:14:20.275Z,4.15
2019-04-27T04:16:54.139Z,4.12
2019-04-27T04:19:23.654Z,3.70
2019-04-27T04:21:52.971Z,3.50
2019-04-27T04:24:22.303Z,3.30
2019-04-27T04:26:51.632Z,3.20
2019-04-27T04:29:21.030Z,3.10
2019-04-27T04:31:50.644Z,3.20
2019-04-27T04:34:20.213Z,3.25
2019-04-27T04:36:50.355Z,3.10
2019-04-27T04:39:20.025Z,2.98
2019-04-27T04:41:59.970Z,3.05
2019-04-27T04:44:47.024Z,3.00
2019-04-27T04:47:21.002Z,3.15
2019-04-27T04:50:07.038Z,3.55
2019-04-27T04:52:21.426Z,3.30
2019-04-27T04:54:50.769Z,3.27
2019-04-27T04:57:21.940Z,2.75
2019-04-27T04:59:51.379Z,2.75
2019-04-27T05:02:20.918Z,2.87
2019-04-27T05:04:50.266Z,2.55
2019-04-27T05:07:19.599Z,2.55
2019-04-27T05:09:48.993Z,2.45
2019-04-27T05:12:19.043Z,2.37
2019-04-27T05:14:49.009Z,2.40
2019-04-27T05:17:19.654Z,2.70
2019-04-27T05:19:50.689Z,2.50
2019-04-27T05:22:20.017Z,2.62
2019-04-27T05:24:50.982Z,2.58
2019-04-27T05:27:20.650Z,2.80
2019-04-27T05:29:50.579Z,2.90
2019-04-27T05:32:20.709Z,2.70
2019-04-27T05:34:50.194Z,2.90
2019-04-27T05:37:27.699Z,2.87
2019-04-27T05:39:50.542Z,3.12
2019-04-27T05:42:20.086Z,3.05
2019-04-27T05:45:10.975Z,3.05
2019-04-27T05:47:43.333Z,3.25
2019-04-27T05:50:17.662Z,3.10
2019-04-27T05:52:44.661Z,2.83
2019-04-27T05:55:14.011Z,3.20
2019-04-27T05:57:43.397Z,3.00
2019-04-27T06:00:14.930Z,2.87
2019-04-27T06:02:44.266Z,2.75
2019-04-27T06:05:13.997Z,2.37
2019-04-27T06:07:43.330Z,2.77
2019-04-27T06:10:12.649Z,2.22
2019-04-27T06:12:41.985Z,2.10
2019-04-27T06:15:12.139Z,2.45
2019-04-27T06:17:41.490Z,1.67
2019-04-27T06:20:10.929Z,1.80
2019-04-27T06:22:40.263Z,1.90
2019-04-27T06:25:11.692Z,1.60
2019-04-27T06:27:40.991Z,2.17
2019-04-27T06:30:10.546Z,2.00
2019-04-27T06:32:39.885Z,1.80
2019-04-27T06:35:12.229Z,1.72
2019-04-27T06:37:40.570Z,1.98
2019-04-27T06:40:10.126Z,1.85
2019-04-27T06:42:39.939Z,1.75
2019-04-27T06:45:10.039Z,1.50
2019-04-27T06:47:41.305Z,1.52
2019-04-27T06:50:10.615Z,1.40
2019-04-27T06:52:39.954Z,1.10
2019-04-27T06:55:09.946Z,1.47
2019-04-27T06:57:41.180Z,1.42
2019-04-27T07:00:10.606Z,1.77
2019-04-27T07:02:39.958Z,1.72
2019-04-27T07:05:09.714Z,1.67
2019-04-27T07:07:39.577Z,2.00
2019-04-27T07:10:10.193Z,1.65
2019-04-27T07:12:41.098Z,2.10
2019-04-27T07:15:10.858Z,1.65
2019-04-27T07:17:40.184Z,1.67
2019-04-27T07:20:09.585Z,1.90
2019-04-27T07:22:39.677Z,1.90
2019-04-27T07:25:09.185Z,2.08
2019-04-27T07:27:39.510Z,2.10
2019-04-27T07:30:11.770Z,2.42
2019-04-27T07:32:40.150Z,1.82
2019-04-27T07:35:09.963Z,2.30
2019-04-27T07:37:39.414Z,2.50
2019-04-27T07:40:09.191Z,2.05
2019-04-27T07:42:41.484Z,1.87
2019-04-27T07:45:15.773Z,2.10
2019-04-27T07:47:46.230Z,2.98
2019-04-27T07:50:15.566Z,2.22
2019-04-27T07:52:44.878Z,2.85
2019-04-27T07:55:14.286Z,2.10
2019-04-27T07:57:43.678Z,2.22
2019-04-27T08:00:15.794Z,1.90
2019-04-27T08:02:45.177Z,2.05
2019-04-27T08:05:14.577Z,2.02
2019-04-27T08:07:43.898Z,1.95
2019-04-27T08:10:13.230Z,1.98
2019-04-27T08:12:42.566Z,1.87
2019-04-27T08:15:12.242Z,1.98
2019-04-27T08:17:42.927Z,2.00
2019-04-27T08:20:12.704Z,1.77
2019-04-27T08:22:42.025Z,1.72
2019-04-27T08:25:11.593Z,2.15
2019-04-27T08:27:42.549Z,1.75
2019-04-27T08:30:13.591Z,1.50
2019-04-27T08:32:50.650Z,1.70
2019-04-27T08:35:19.986Z,1.40
2019-04-27T08:37:49.666Z,1.02
2019-04-27T08:40:19.464Z,1.15
2019-04-27T08:42:51.054Z,1.47
2019-04-27T08:45:19.885Z,1.40
2019-04-27T08:47:49.772Z,2.02
2019-04-27T08:50:19.410Z,1.65
2019-04-27T08:52:50.134Z,1.98
2019-04-27T08:55:19.796Z,1.75
2019-04-27T08:57:49.310Z,1.95
2019-04-27T09:00:19.591Z,1.95
2019-04-27T09:02:50.264Z,1.72
2019-04-27T09:05:25.954Z,1.95
2019-04-27T09:07:59.518Z,2.00
2019-04-27T09:10:30.496Z,1.98
2019-04-27T09:13:08.747Z,2.00
2019-04-27T09:15:42.578Z,1.90
2019-04-27T09:18:13.539Z,1.70
2019-04-27T09:20:46.965Z,1.90
2019-04-27T09:23:16.286Z,1.67
2019-04-27T09:25:45.624Z,1.67
2019-04-27T09:28:14.941Z,2.00
2019-04-27T09:30:44.274Z,2.02
2019-04-27T09:33:13.597Z,1.98
2019-04-27T09:35:43.006Z,2.10
2019-04-27T09:38:12.382Z,1.70
2019-04-27T09:40:41.790Z,1.87
2019-04-27T09:43:11.109Z,1.98
2019-04-27T09:45:40.913Z,1.95
2019-04-27T09:48:10.303Z,2.00
2019-04-27T09:50:39.634Z,1.80
2019-04-27T09:53:09.022Z,2.00
2019-04-27T09:55:38.369Z,2.00
2019-04-27T09:58:07.684Z,1.75
2019-04-27T10:00:37.283Z,1.77
2019-04-27T10:03:06.811Z,1.80
2019-04-27T10:05:36.704Z,2.00
2019-04-27T11:20:33.538Z,1.85
2019-04-27T11:23:09.279Z,2.10
2019-04-27T11:25:33.874Z,2.00
2019-04-27T11:28:03.217Z,1.87
2019-04-27T11:30:32.604Z,2.00
2019-04-27T11:33:01.934Z,2.22
2019-04-27T11:35:49.541Z,1.90
2019-04-27T11:38:18.945Z,2.40
2019-04-27T11:40:48.265Z,2.20
2019-04-27T11:43:17.593Z,1.82
2019-04-27T11:45:46.909Z,2.17
2019-04-27T11:48:16.265Z,1.98
2019-04-27T11:50:45.998Z,2.08
2019-04-27T11:53:22.777Z,2.12
2019-04-27T11:55:46.851Z,2.60
2019-04-27T11:58:16.533Z,2.40
2019-04-27T12:00:46.070Z,2.27
2019-04-27T12:03:16.610Z,2.08
2019-04-27T12:05:46.522Z,1.90
2019-04-27T12:08:16.250Z,1.92
2019-04-27T12:10:48.247Z,1.70
2019-04-27T12:13:17.569Z,1.90
2019-04-27T12:15:46.907Z,1.60
2019-04-27T12:18:16.220Z,1.80
2019-04-27T12:20:45.794Z,1.80
2019-04-27T12:23:16.536Z,2.08
2019-04-27T12:25:46.257Z,1.80
2019-04-27T12:28:35.198Z,2.00
2019-04-27T12:31:16.398Z,1.77
2019-04-27T12:33:51.541Z,1.67
2019-04-27T12:36:20.871Z,1.37
2019-04-27T12:38:50.221Z,1.40
2019-04-27T12:41:19.540Z,1.45
2019-04-27T12:43:48.859Z,1.82
2019-04-27T12:46:18.189Z,1.25
2019-04-27T12:48:47.511Z,1.60
2019-04-27T12:51:16.919Z,1.00
2019-04-27T12:53:52.913Z,1.35
2019-04-27T12:56:28.965Z,1.20
2019-04-27T12:59:02.601Z,1.00
2019-04-27T13:01:31.939Z,1.00
2019-04-27T13:04:01.262Z,0.68
2019-04-27T13:06:30.589Z,0.80
2019-04-27T13:08:59.915Z,0.70
2019-04-27T13:11:29.254Z,0.50
2019-04-27T13:13:58.565Z,0.70
2019-04-27T13:16:30.388Z,0.72
2019-04-27T13:18:58.918Z,0.85
2019-04-27T13:21:28.253Z,0.93
2019-04-27T13:24:04.052Z,0.68
2019-04-27T13:26:28.619Z,0.70
2019-04-27T13:28:58.354Z,0.45
2019-04-27T13:31:27.753Z,0.90
2019-04-27T13:33:58.137Z,0.70
2019-04-27T13:36:27.466Z,0.88
2019-04-27T13:38:56.790Z,0.95
2019-04-27T13:41:32.354Z,0.90
2019-04-27T13:43:57.591Z,1.00
2019-04-27T13:46:37.711Z,0.70
2019-04-27T13:49:20.767Z,0.78
2019-04-27T13:51:55.590Z,0.70
2019-04-27T13:54:28.858Z,0.60
2019-04-27T13:56:56.754Z,0.70
2019-04-27T13:59:26.075Z,0.98
2019-04-27T14:01:55.404Z,0.90
2019-04-27T14:04:24.732Z,0.88
2019-04-27T14:06:54.064Z,0.90
2019-04-27T14:09:23.385Z,0.90
2019-04-27T14:11:54.353Z,1.02
2019-04-27T14:14:23.665Z,1.00
2019-04-27T14:16:52.997Z,0.78
2019-04-27T14:19:22.336Z,1.07
2019-04-27T14:21:51.726Z,0.98
2019-04-27T14:24:29.916Z,0.90
2019-04-27T14:26:53.949Z,0.90
2019-04-27T14:29:23.265Z,1.00
2019-04-27T14:31:52.598Z,0.90
2019-04-27T14:34:21.922Z,0.90
2019-04-27T14:36:51.261Z,1.05
2019-04-27T14:39:21.314Z,0.98
2019-04-27T14:41:50.645Z,0.98
2019-04-27T14:44:20.029Z,1.00
2019-04-27T14:46:49.362Z,1.42
2019-04-27T14:49:19.914Z,1.32
2019-04-27T14:51:49.389Z,1.50
2019-04-27T14:54:19.777Z,1.60
2019-04-27T14:56:49.129Z,1.10
2019-04-27T14:59:19.986Z,1.20
2019-04-27T15:01:49.325Z,1.37
2019-04-27T15:04:18.657Z,1.27
2019-04-27T15:06:47.969Z,1.10
2019-04-27T15:09:21.114Z,2.85
2019-04-27T15:11:53.575Z,4.30
2019-04-27T15:14:23.744Z,3.52
2019-04-27T15:16:52.762Z,3.20
2019-04-27T15:19:26.503Z,2.60
2019-04-27T15:21:58.608Z,1.60
2019-04-27T15:24:26.878Z,1.30
2019-04-27T15:26:59.025Z,1.30
2019-04-27T15:29:29.907Z,2.05
2019-04-27T15:32:03.870Z,1.55
2019-04-27T15:34:35.566Z,1.60
2019-04-27T15:37:15.459Z,1.60
2019-04-27T15:39:46.436Z,1.57
2019-04-27T15:42:32.501Z,1.30
2019-04-27T15:45:01.823Z,1.90
2019-04-27T15:47:33.523Z,1.55
2019-04-27T15:50:02.217Z,1.37
2019-04-27T15:52:33.128Z,1.45
2019-04-27T15:55:07.324Z,1.10
2019-04-27T15:57:33.898Z,1.30
2019-04-27T16:00:05.531Z,1.60
2019-04-27T16:02:37.839Z,1.30
2019-04-27T16:05:08.300Z,1.72
2019-04-27T16:07:38.882Z,1.90
2019-04-27T16:10:09.087Z,1.12
2019-04-27T16:12:50.257Z,1.60
2019-04-27T16:15:13.484Z,1.42
2019-04-27T16:17:43.995Z,1.60
2019-04-27T16:20:14.789Z,1.65
2019-04-27T16:22:44.109Z,4.10
2019-04-27T16:25:14.245Z,3.00
2019-04-27T16:27:43.633Z,1.60
2019-04-27T16:30:17.915Z,1.52
2019-04-27T16:32:46.394Z,1.57
2019-04-27T16:35:19.422Z,1.50
2019-04-27T16:37:56.334Z,1.70
2019-04-27T16:40:24.406Z,2.05
2019-04-27T16:42:54.627Z,2.00
2019-04-27T16:45:27.186Z,1.80
2019-04-27T16:47:56.471Z,1.80
2019-04-27T16:50:27.274Z,1.95
2019-04-27T16:53:00.900Z,3.10
2019-04-27T16:55:34.133Z,1.50
2019-04-27T16:57:59.968Z,1.62
2019-04-27T17:00:30.329Z,1.00
2019-04-27T17:03:02.859Z,0.80
2019-04-27T17:05:34.448Z,1.00
2019-04-27T17:08:02.058Z,0.82
2019-04-27T17:10:31.739Z,1.25
2019-04-27T17:13:01.133Z,1.35
2019-04-27T17:15:53.749Z,1.82
2019-04-27T17:18:24.426Z,1.27
2019-04-27T17:20:57.422Z,2.00
2019-04-27T17:23:30.994Z,1.40
2019-04-27T17:26:04.443Z,1.07
2019-04-27T17:28:33.495Z,1.10
2019-04-27T17:31:03.986Z,1.40
2019-04-27T17:33:38.148Z,1.30
2019-04-27T17:36:08.029Z,1.42
2019-04-27T17:38:38.472Z,1.45
2019-04-27T17:41:11.181Z,1.02
2019-04-27T17:43:41.566Z,1.37
2019-04-27T17:46:11.623Z,1.20
2019-04-27T17:48:40.930Z,1.10
2019-04-27T17:51:10.359Z,1.75
2019-04-27T17:53:39.679Z,1.67
2019-04-27T17:56:09.005Z,2.15
2019-04-27T17:58:39.639Z,1.40
2019-04-27T18:01:14.095Z,1.50
2019-04-27T18:03:41.618Z,1.37
2019-04-27T18:06:10.946Z,1.10
2019-04-27T18:08:40.460Z,3.40
2019-04-27T18:11:10.139Z,2.33
2019-04-27T18:13:42.040Z,1.55
2019-04-27T18:16:10.625Z,1.22
2019-04-27T18:18:50.365Z,1.20
2019-04-27T18:21:21.339Z,1.27
2019-04-27T18:24:01.592Z,1.30
2019-04-27T18:26:49.124Z,1.00
2019-04-27T18:29:10.670Z,1.02
2019-04-27T18:31:40.084Z,1.00
2019-04-27T18:34:15.312Z,0.90
2019-04-27T18:36:43.873Z,0.98
2019-04-27T18:39:13.767Z,1.05
2019-04-27T18:41:49.255Z,1.75
2019-04-27T18:44:15.106Z,1.70
2019-04-27T18:46:44.557Z,1.42
2019-04-27T18:49:18.262Z,1.32
2019-04-27T18:51:49.293Z,3.90
2019-04-27T18:54:18.612Z,1.82
2019-04-27T18:57:01.440Z,1.62
2019-04-27T18:59:18.965Z,1.62
2019-04-27T19:01:48.955Z,1.40
2019-04-27T19:04:19.002Z,1.62
2019-04-27T19:06:48.578Z,1.60
2019-04-27T19:09:18.719Z,1.65
2019-04-27T19:11:56.149Z,1.40
2019-04-27T19:14:19.273Z,1.07
2019-04-27T19:16:48.610Z,1.17
2019-04-27T19:19:18.943Z,1.72
2019-04-27T19:21:48.741Z,1.22
2019-04-27T19:24:19.195Z,1.15
2019-04-27T19:27:16.128Z,1.30
2019-04-27T19:29:48.529Z,1.40
2019-04-27T19:32:18.140Z,1.47
2019-04-27T19:34:47.973Z,1.40
2019-04-27T19:37:18.734Z,1.57
2019-04-27T19:39:49.787Z,1.17
2019-04-27T19:42:20.427Z,1.40
2019-04-27T19:44:50.053Z,2.70
2019-04-27T19:47:19.386Z,3.08
2019-04-27T19:49:48.693Z,3.42
2019-04-27T19:52:18.371Z,1.27
2019-04-27T19:54:49.428Z,1.42
2019-04-27T19:57:30.884Z,1.60
2019-04-27T19:59:51.501Z,1.40
2019-04-27T20:02:21.401Z,1.60
2019-04-27T20:04:52.362Z,1.75
2019-04-27T20:07:21.698Z,1.60
2019-04-27T20:09:58.500Z,1.60
2019-04-27T20:12:28.934Z,1.62
2019-04-27T20:14:58.379Z,1.27
2019-04-27T20:17:31.139Z,1.55
2019-04-27T20:20:00.735Z,1.30
2019-04-27T20:22:30.297Z,1.50
2019-04-27T20:25:01.487Z,1.75
2019-04-27T20:27:32.188Z,1.27
2019-04-27T20:30:03.094Z,1.47
2019-04-27T20:32:33.147Z,1.50
2019-04-27T20:35:02.481Z,1.92
2019-04-27T20:37:32.261Z,1.50
2019-04-27T20:40:01.919Z,1.57
2019-04-27T20:42:32.531Z,1.92
2019-04-27T20:45:02.192Z,2.05
2019-04-27T20:47:33.191Z,1.55
2019-04-27T20:50:02.517Z,1.40
2019-04-27T20:52:35.137Z,1.65
2019-04-27T20:55:06.493Z,1.80
2019-04-27T20:57:35.853Z,1.60
2019-04-27T21:00:07.186Z,1.62
2019-04-27T21:02:42.486Z,2.60
2019-04-27T21:05:31.417Z,1.60
2019-04-27T21:08:07.873Z,1.72
2019-04-27T21:10:37.185Z,1.60
2019-04-27T21:13:06.517Z,1.72
2019-04-27T21:15:35.833Z,1.62
2019-04-27T21:18:05.238Z,1.57
2019-04-27T21:20:34.558Z,1.60
2019-04-27T21:23:03.886Z,1.95
2019-04-27T21:25:33.764Z,1.67
2019-04-27T21:28:15.385Z,1.80
2019-04-27T21:30:34.206Z,1.70
2019-04-27T21:33:03.527Z,1.80
2019-04-27T21:35:33.950Z,2.95
2019-04-27T21:38:04.785Z,2.75
2019-04-27T21:40:34.618Z,2.83
2019-04-27T21:43:03.942Z,2.10
2019-04-27T21:45:33.269Z,2.00
2019-04-27T21:48:02.590Z,1.80
2019-04-27T21:50:31.938Z,1.75
2019-04-27T21:53:21.160Z,1.75
2019-04-27T21:56:01.462Z,2.45
2019-04-27T21:58:33.300Z,2.33
2019-04-27T22:01:12.881Z,1.60
2019-04-27T22:03:41.971Z,2.08
2019-04-27T22:06:12.538Z,1.95
2019-04-27T22:08:41.858Z,1.92
2019-04-27T22:11:11.754Z,1.82
2019-04-27T22:13:41.257Z,2.00
2019-04-27T22:16:12.726Z,1.77
2019-04-27T22:18:41.831Z,1.65
2019-04-27T22:21:11.615Z,1.70
2019-04-27T22:23:45.814Z,2.00
2019-04-27T22:26:15.285Z,1.67
2019-04-27T22:28:49.242Z,1.80
2019-04-27T22:31:15.910Z,1.37
2019-04-27T22:33:46.292Z,1.70
2019-04-27T22:36:15.630Z,1.67
2019-04-27T22:38:45.017Z,1.57
2019-04-27T22:41:16.025Z,1.90
2019-04-27T22:43:56.145Z,1.60
2019-04-27T22:46:32.851Z,1.70
2019-04-27T22:49:02.166Z,1.50
2019-04-27T22:51:31.500Z,1.67
2019-04-27T22:54:01.389Z,2.00
2019-04-27T22:56:32.091Z,1.98
2019-04-27T22:59:10.991Z,1.67
2019-04-27T23:01:42.691Z,1.80
2019-04-27T23:04:32.433Z,1.67
2019-04-27T23:07:02.746Z,1.67
2019-04-27T23:09:32.282Z,1.70
2019-04-27T23:12:01.876Z,1.90
2019-04-27T23:14:31.402Z,1.98
2019-04-27T23:17:03.180Z,2.00
2019-04-27T23:19:32.622Z,1.90
2019-04-27T23:22:01.954Z,1.70
2019-04-27T23:24:31.277Z,1.92
2019-04-27T23:27:03.463Z,1.95
2019-04-27T23:29:33.221Z,1.65
2019-04-27T23:32:07.331Z,1.72
2019-04-27T23:34:36.641Z,1.90
2019-04-27T23:37:05.977Z,1.60
2019-04-27T23:39:35.300Z,1.85
2019-04-27T23:42:06.754Z,1.90
2019-04-27T23:44:35.705Z,1.72
2019-04-27T23:47:05.041Z,1.67
2019-04-27T23:49:34.360Z,1.87
2019-04-27T23:52:08.349Z,1.52
2019-04-27T23:54:38.743Z,1.80
2019-04-27T23:57:08.078Z,1.85
2019-04-27T23:59:38.457Z,1.75
